Flight Track Log - Related Links

Times and Time Zones

All times are in EDT time to prevent confusion due to time zone crossing. See the RSP882 flight status page for this flight to view local times or setup timezone preferences in your user account.

Time Position Orientation Groundspeed Altitude Reporting Facility
EDT Latitude Longitude Course Direction KTS MPH feet Rate Location/Type
Mon 10:27:10 AM 40.7333 -74.4333 36° Northeast 217 250 2,000  Level New York TRACON
Mon 10:28:10 AM 40.7167 -74.3500 105° East 210 242 4,700 2,000 Climbing New York TRACON
Mon 10:29:10 AM 40.7667 -74.3000 37° Northeast 238 274 6,000 650 Climbing New York TRACON
Mon 10:30:10 AM 40.8333 -74.2833 11° North 233 268 6,000  Level New York TRACON
Mon 10:31:10 AM 40.9000 -74.2500 21° North 228 262 6,000  Level New York TRACON
Mon 10:32:00 AM 40.8174 -74.3975 36° Northeast  Level FlightAware Approximate
Mon 10:32:10 AM 40.9500 -74.2167 27° Northeast 228 262 6,000  Level New York TRACON
Mon 10:33:11 AM 41.0167 -74.2000 11° North 231 266 6,000  Level New York TRACON
Mon 10:34:11 AM 41.0833 -74.1667 21° North 227 261 6,000 655 Level New York TRACON
Mon 10:35:10 AM 41.1167 -74.1167 48° Northeast 248 285 7,300 2,250 Climbing New York TRACON
Mon 10:36:11 AM 41.1500 -74.0333 62° Northeast 266 306 10,500 2,000 Climbing New York TRACON
Mon 10:37:43 AM 41.1950 -73.8800 69° East 311 358 12,400 1,934 Climbing Boston Center
Mon 10:38:43 AM 41.2089 -73.7533 82° East 311 358 15,400 2,600 Climbing Boston Center
Mon 10:39:43 AM 41.2186 -73.6514 83° East 311 358 17,600 1,800 Climbing Boston Center
Mon 10:40:43 AM 41.2322 -73.5192 82° East 316 364 19,000 700 Climbing Boston Center
Mon 10:41:43 AM 41.2417 -73.3953 84° East 355 409 19,000  Level Boston Center
Mon 10:42:43 AM 41.2575 -73.2408 82° East 367 422 19,000  Level Boston Center
Mon 10:43:43 AM 41.2647 -73.1028 86° East 367 422 19,000  Level Boston Center
Mon 10:45:43 AM 41.2847 -72.8269 84° East 367 422 19,000  Level Boston Center
Mon 10:46:43 AM 41.2956 -72.6833 84° East 367 422 19,000  Level Boston Center
Mon 10:47:43 AM 41.3019 -72.5450 86° East 367 422 19,000  Level Boston Center
Mon 10:48:43 AM 41.3083 -72.4069 86° East 367 422 19,000 -300 Level Boston Center
Mon 10:49:43 AM 41.3167 -72.2689 85° East 367 422 18,400 -1,000 Descending Boston Center
Mon 10:50:43 AM 41.3247 -72.1361 85° East 362 417 17,000 -1,750 Descending Boston Center
Mon 10:51:43 AM 41.3325 -72.0061 85° East 362 417 14,900 -1,900 Descending Boston Center
Mon 10:52:43 AM 41.3403 -71.8817 85° East 344 396 13,200 -1,800 Descending Boston Center
Mon 10:53:43 AM 41.3458 -71.7628 86° East 331 381 11,300 -1,100 Descending Boston Center
Mon 10:54:43 AM 41.3492 -71.6411 88° East 326 375 11,000 -150 Descending Boston Center
Mon 10:55:43 AM 41.3567 -71.5247 85° East 326 375 11,000 -1,125 Level Boston Center
Mon 10:57:07 AM 41.3636 -71.3669 87° East 310 357 8,300 -1,625 Descending Boston Center
Mon 10:58:07 AM 41.3689 -71.2700 86° East 290 334 7,100 -650 Descending Boston Center
Mon 10:59:07 AM 41.3739 -71.1567 87° East 285 328 7,000 -50 Descending Boston Center
Mon 11:00:07 AM 41.3792 -71.0625 86° East 285 328 7,000  Level Boston Center
Mon 11:01:07 AM 41.3817 -70.9461 88° East 285 328 7,000 -700 Level Boston Center
Mon 11:02:07 AM 41.3867 -70.8519 86° East 285 328 5,600 -1,050 Descending Boston Center
Mon 11:03:07 AM 41.3892 -70.7383 88° East 277 319 4,900 -1,250 Descending Boston Center
Mon 11:04:07 AM 41.4089 -70.6631 71° East 244 281 3,100 -1,450 Descending Boston Center
Mon 11:05:07 AM 41.4558 -70.5981 46° Northeast 223 257 2,000 -900 Descending Boston Center
Mon 11:06:07 AM 41.4489 -70.5514 101° East 145 167 1,300 -600 Descending Boston Center
Mon 11:07:07 AM 41.4222 -70.5797 219° Southwest 48 55 800 -500 Descending Boston Center

Login

Don't have an account? Register now (free) for customized features, flight alerts, and more!